Aérodrome :
LOGIN :

S'inscrire | Disclaimer

   EN    FR    IT 

 










Légende :    VFR   VFR Marginal   IFR   IFR Intensif   IFR Très Intensif
Visi : 
Plafond : 
>= 8 km
>= 3000ft
5 à 8 km
1000 à 3000 ft
1500m à 5 km
500 à 1000 ft
800 à 1500m
200 à 500 ft
< 800m
< 200 ft
Symboles :   Orages  Brouillard  Fortes neiges  Fortes précipitations  Vent > 20 kt
SIGMETs :   Divers  Orages  Givrage  Turbulence  Onde Orograph.  Cendres Volcan.







- Altitude de l'aérodrome : 1325 ft
- Code IATA : EBU
- Voir les cartes d'approche


LFMH - St-Etienne Boutheon

DERNIER METAR :
  • 270400Z AUTO 15009KT CAVOK 17/09 Q1018 NOSIG

METARs EXPIRÉS :
  • 270330Z AUTO 13009KT CAVOK 18/09 Q1018 NOSIG
  • 270300Z AUTO 14007KT CAVOK 17/10 Q1018 NOSIG
  • 270230Z AUTO 16006KT CAVOK 17/09 Q1018 NOSIG
  • 270200Z AUTO 16006KT CAVOK 17/10 Q1018
  • 270130Z AUTO 16008KT CAVOK 18/10 Q1018

TAF TAF LFMH
Valide du 27 à 03h jusqu'au 28 à 03h UTC


270200Z 2703/2803 16006KT CAVOK
ATIS : +33 4 77 36 17 51
Pas de NOTAMs connus pour ce terrain.



MET'MAP, la Météo Aéronautique d'un coup d'oeil ! - Copyright ORBIFLY Décembre 2007 - Disclaimer

ORBIFLY MET'MAP TEAM :

Programmation & Développement : Alexandra Zaïnal
Conception & Développement : Baudouin d'Aumeries
Co-Programmation & Développement : Marc-Olivier Méhu
Soutien technique & logistique : Manuel Goepfert

Contact : metmap@orbifly.com




SOURCES & CREDITS :

   NOAA